Time;durP1;ratioP1;P1;durP2;ratioP2;P2;SDS_P1;SDS_P2;PMS_P1;PMS_P2;Temp;Humidity;BMP_temperature;BMP_pressure;BME280_temperature;BME280_humidity;BME280_pressure;Samples;Min_cycle;Max_cycle;Signal;HPM_P1;HPM_P2
2024/04/05 00:01:07;;;;;;;458.55;85.57;;;17.60;44.40;;;;;;5004430;28;20052;-69
2024/04/05 00:03:33;;;;;;;489.42;91.55;;;17.60;44.40;;;;;;5000469;28;20049;-69
2024/04/05 00:06:01;;;;;;;491.58;91.22;;;17.70;44.60;;;;;;5014303;28;20057;-69
2024/04/05 00:08:30;;;;;;;504.98;97.45;;;17.70;44.60;;;;;;5011947;28;20148;-67
2024/04/05 00:10:59;;;;;;;493.30;106.22;;;17.70;44.60;;;;;;4996797;28;20049;-68
2024/04/05 00:13:25;;;;;;;512.53;102.13;;;17.80;44.60;;;;;;5011725;28;20079;-68
2024/04/05 00:15:53;;;;;;;459.65;85.93;;;17.80;44.50;;;;;;5014219;28;20072;-68
2024/04/05 00:18:20;;;;;;;486.90;95.32;;;17.80;44.50;;;;;;5015939;28;20064;-69
2024/04/05 00:20:47;;;;;;;644.38;158.35;;;17.80;44.40;;;;;;4987685;28;20905;-70
2024/04/05 00:23:14;;;;;;;474.13;89.47;;;17.80;44.50;;;;;;5010257;28;20504;-69
2024/04/05 00:25:42;;;;;;;472.35;88.75;;;17.80;44.50;;;;;;5002769;28;20500;-69
2024/04/05 00:28:10;;;;;;;465.67;85.78;;;17.80;44.60;;;;;;5010923;28;20052;-69
2024/04/05 00:30:38;;;;;;;606.35;131.95;;;17.80;44.60;;;;;;4992108;28;20149;-68
2024/04/05 00:33:04;;;;;;;462.70;85.93;;;17.70;44.60;;;;;;4999140;28;20201;-68
2024/04/05 00:35:32;;;;;;;483.52;92.32;;;17.60;44.60;;;;;;4988161;28;20430;-68
2024/04/05 00:37:58;;;;;;;486.10;95.40;;;17.50;44.70;;;;;;5009897;28;20533;-69
2024/04/05 00:40:27;;;;;;;479.83;91.45;;;17.40;44.90;;;;;;5001888;28;20056;-69
2024/04/05 00:42:54;;;;;;;513.35;115.30;;;17.30;45.00;;;;;;5004879;28;20049;-68
2024/04/05 00:45:23;;;;;;;540.33;105.32;;;17.20;45.20;;;;;;5002862;28;20060;-68
2024/04/05 00:47:49;;;;;;;464.70;88.00;;;17.10;45.10;;;;;;5011718;28;20058;-69
2024/04/05 00:50:17;;;;;;;481.63;91.25;;;17.10;45.30;;;;;;5001124;28;20062;-70
2024/04/05 00:52:43;;;;;;;612.33;148.25;;;17.00;45.40;;;;;;5005997;28;20057;-70
2024/04/05 00:55:11;;;;;;;462.77;86.47;;;17.00;45.60;;;;;;5004529;28;20050;-68
2024/04/05 00:57:37;;;;;;;471.25;89.07;;;16.90;45.50;;;;;;5010262;28;20053;-69
2024/04/05 01:00:07;;;;;;;461.48;85.25;;;16.90;45.60;;;;;;5008018;28;20058;-69
2024/04/05 01:02:35;;;;;;;516.97;106.45;;;16.90;45.60;;;;;;5003930;28;20081;-69
2024/04/05 01:05:03;;;;;;;523.42;102.93;;;16.90;45.70;;;;;;5013123;28;20100;-70
2024/04/05 01:07:30;;;;;;;464.13;85.93;;;16.90;45.60;;;;;;5004536;28;20071;-69
2024/04/05 01:09:57;;;;;;;514.33;98.53;;;16.90;45.60;;;;;;5009652;28;20064;-71
2024/04/05 01:12:23;;;;;;;471.92;86.80;;;16.90;45.70;;;;;;5001632;28;20099;-70
2024/04/05 01:14:51;;;;;;;568.47;135.00;;;16.90;45.70;;;;;;4998029;28;20802;-70
2024/04/05 01:17:18;;;;;;;463.10;86.13;;;17.00;45.70;;;;;;5001285;28;20161;-70
2024/04/05 01:19:49;;;;;;;469.90;85.78;;;17.00;46.20;;;;;;5007021;28;20053;-69
2024/04/05 01:22:18;;;;;;;460.45;84.18;;;17.10;45.70;;;;;;5002958;28;20037;-70
2024/04/05 01:24:47;;;;;;;611.60;146.43;;;17.10;45.60;;;;;;5004958;28;20070;-70
2024/04/05 01:27:14;;;;;;;458.75;81.88;;;17.10;45.50;;;;;;5006663;28;20127;-70
2024/04/05 01:29:42;;;;;;;461.95;85.50;;;17.10;45.50;;;;;;5001916;28;20062;-69
2024/04/05 01:32:08;;;;;;;464.38;88.40;;;17.10;45.60;;;;;;4995337;28;20216;-69
2024/04/05 01:34:36;;;;;;;559.85;119.15;;;17.10;45.60;;;;;;4989588;28;20073;-69
2024/04/05 01:37:03;;;;;;;463.33;85.50;;;17.10;45.70;;;;;;5008721;28;20057;-69
2024/04/05 01:39:30;;;;;;;470.05;86.13;;;17.10;45.80;;;;;;4992413;28;20153;-69
2024/04/05 01:41:58;;;;;;;457.35;83.63;;;17.10;45.80;;;;;;4988972;28;20120;-70
2024/04/05 01:44:25;;;;;;;477.77;87.82;;;17.10;45.90;;;;;;4997757;28;20137;-71
2024/04/05 01:46:52;;;;;;;496.92;105.60;;;17.00;46.10;;;;;;4999837;28;20127;-70
2024/04/05 01:49:19;;;;;;;592.22;129.82;;;17.00;46.20;;;;;;5002629;28;20057;-71
2024/04/05 01:51:46;;;;;;;457.73;82.28;;;17.00;46.40;;;;;;4999080;28;20057;-71
2024/04/05 01:54:13;;;;;;;458.77;86.13;;;17.00;46.50;;;;;;5013492;28;20045;-71
2024/04/05 01:56:39;;;;;;;686.22;161.07;;;17.00;46.50;;;;;;4994981;28;20057;-73
2024/04/05 01:59:09;;;;;;;462.15;84.93;;;17.00;46.60;;;;;;5010429;28;20065;-73
2024/04/05 02:01:35;;;;;;;471.65;85.47;;;16.90;46.60;;;;;;5003942;28;20046;-73
2024/04/05 02:04:03;;;;;;;488.60;91.35;;;16.90;46.70;;;;;;4991725;28;20350;-73
2024/04/05 02:06:29;;;;;;;464.63;85.25;;;16.90;46.90;;;;;;5007787;28;20065;-72
2024/04/05 02:08:57;;;;;;;467.83;86.50;;;16.90;47.10;;;;;;4994184;28;21018;-73
2024/04/05 02:11:24;;;;;;;524.65;106.10;;;16.90;47.10;;;;;;5002182;28;20425;-73
2024/04/05 02:13:51;;;;;;;458.73;84.32;;;16.90;47.40;;;;;;5003915;28;20050;-74
2024/04/05 02:16:19;;;;;;;535.92;108.40;;;16.80;47.30;;;;;;5005962;28;20130;-75
2024/04/05 02:18:47;;;;;;;637.30;158.23;;;16.80;47.30;;;;;;5004171;28;20064;-74
2024/04/05 02:21:13;;;;;;;540.88;109.40;;;16.70;47.50;;;;;;5000938;28;20104;-73
2024/04/05 02:23:40;;;;;;;471.90;85.97;;;16.70;47.70;;;;;;4991624;28;20076;-73
2024/04/05 02:26:07;;;;;;;524.22;105.43;;;16.70;47.90;;;;;;5006534;28;20065;-73
2024/04/05 02:28:35;;;;;;;527.53;109.05;;;16.70;48.10;;;;;;4998570;28;20061;-71
2024/04/05 02:31:01;;;;;;;464.67;84.05;;;16.70;48.10;;;;;;5003959;28;20793;-74
2024/04/05 02:33:30;;;;;;;459.70;84.13;;;16.60;48.00;;;;;;4998586;28;20065;-72
2024/04/05 02:35:59;;;;;;;460.90;87.57;;;16.60;48.50;;;;;;5005450;28;20562;-74
2024/04/05 02:38:27;;;;;;;461.33;82.68;;;16.50;49.10;;;;;;5005394;28;20107;-74
2024/04/05 02:40:53;;;;;;;447.30;81.13;;;16.60;49.50;;;;;;5009792;28;20088;-73
2024/04/05 02:43:21;;;;;;;493.35;93.30;;;16.60;49.20;;;;;;4994504;28;20045;-74
2024/04/05 02:45:47;;;;;;;470.48;86.15;;;16.60;49.20;;;;;;5012316;28;20462;-73
2024/04/05 02:48:16;;;;;;;481.45;91.70;;;16.60;49.20;;;;;;5012154;28;20114;-74
2024/04/05 02:50:44;;;;;;;626.45;154.93;;;16.70;49.70;;;;;;5011621;28;20063;-74
2024/04/05 02:53:11;;;;;;;505.58;93.95;;;16.70;49.40;;;;;;5007232;28;20058;-75
2024/04/05 02:55:37;;;;;;;457.15;83.90;;;16.80;49.10;;;;;;5024048;28;20061;-74
2024/04/05 02:58:05;;;;;;;474.08;87.15;;;16.80;49.30;;;;;;5018444;28;20538;-75
2024/04/05 03:00:37;;;;;;;482.27;94.45;;;16.90;49.20;;;;;;5009579;28;20058;-75
2024/04/05 03:03:06;;;;;;;469.05;85.68;;;16.90;49.20;;;;;;4997892;28;20125;-74
2024/04/05 03:05:32;;;;;;;467.85;86.13;;;16.90;49.50;;;;;;5020668;28;20059;-75
2024/04/05 03:08:01;;;;;;;581.22;124.82;;;16.90;49.50;;;;;;4984744;28;20069;-75
2024/04/05 03:10:29;;;;;;;460.77;85.18;;;16.90;49.30;;;;;;5008389;28;20754;-75
2024/04/05 03:12:57;;;;;;;466.63;86.45;;;17.00;49.40;;;;;;4999984;28;20081;-76
2024/04/05 03:15:23;;;;;;;465.92;84.97;;;17.00;49.00;;;;;;5005951;28;20172;-76
2024/04/05 03:17:51;;;;;;;535.38;108.50;;;17.10;48.80;;;;;;5004812;28;20054;-73
2024/04/05 03:20:18;;;;;;;490.67;90.45;;;17.10;48.90;;;;;;5008589;28;20055;-74
2024/04/05 03:22:46;;;;;;;638.35;154.38;;;16.90;48.70;;;;;;4983434;28;20116;-73
2024/04/05 03:25:14;;;;;;;541.25;105.53;;;16.80;48.80;;;;;;5010631;28;20084;-70
2024/04/05 03:27:41;;;;;;;514.83;99.57;;;16.70;49.20;;;;;;5001048;28;20081;-71
2024/04/05 03:30:08;;;;;;;504.65;92.65;;;16.50;49.40;;;;;;4995106;28;20052;-70
2024/04/05 03:32:36;;;;;;;616.45;136.27;;;16.40;49.50;;;;;;4994618;28;20159;-68
2024/04/05 03:35:05;;;;;;;493.95;96.15;;;16.40;49.50;;;;;;5011670;28;20060;-67
2024/04/05 03:37:33;;;;;;;479.38;86.50;;;16.30;49.90;;;;;;5008550;28;20132;-68
2024/04/05 03:40:01;;;;;;;503.58;92.72;;;16.20;50.10;;;;;;5009582;28;20058;-69
2024/04/05 03:42:30;;;;;;;462.85;87.38;;;16.20;50.40;;;;;;5006653;28;20060;-68
2024/04/05 03:44:56;;;;;;;460.25;84.15;;;16.10;50.60;;;;;;4985826;28;20084;-69
2024/04/05 03:47:23;;;;;;;465.95;84.20;;;16.10;50.30;;;;;;5007786;28;20128;-69
2024/04/05 03:49:50;;;;;;;459.15;81.47;;;16.20;50.40;;;;;;5009470;28;20508;-69
2024/04/05 03:52:17;;;;;;;487.10;89.30;;;16.20;50.30;;;;;;5001477;28;20126;-68
2024/04/05 03:54:44;;;;;;;624.50;149.73;;;16.20;50.10;;;;;;5000808;28;20046;-68
2024/04/05 03:57:12;;;;;;;466.95;84.13;;;16.30;50.20;;;;;;5011550;28;20053;-69
2024/04/05 03:59:39;;;;;;;473.55;85.53;;;16.40;50.10;;;;;;5000676;28;20111;-69
2024/04/05 04:02:08;;;;;;;485.45;88.32;;;16.50;50.90;;;;;;4988923;28;20104;-70
2024/04/05 04:04:35;;;;;;;570.75;119.88;;;16.60;50.20;;;;;;4994787;28;20060;-68
2024/04/05 04:07:03;;;;;;;474.55;85.90;;;16.60;50.10;;;;;;5013593;28;20041;-70
2024/04/05 04:09:29;;;;;;;513.42;100.85;;;16.70;50.10;;;;;;5008039;28;20613;-69
2024/04/05 04:11:57;;;;;;;476.05;87.30;;;16.70;50.00;;;;;;4987356;28;20057;-69
2024/04/05 04:14:26;;;;;;;495.55;92.10;;;16.80;50.10;;;;;;5010621;28;20159;-71
2024/04/05 04:16:55;;;;;;;519.08;115.22;;;16.90;49.90;;;;;;4998211;28;20889;-72
2024/04/05 04:19:22;;;;;;;498.75;91.35;;;16.90;49.80;;;;;;5015867;28;20046;-71
2024/04/05 04:21:49;;;;;;;464.60;83.47;;;17.00;49.80;;;;;;5007821;28;20061;-71
2024/04/05 04:24:19;;;;;;;494.15;90.85;;;17.00;49.70;;;;;;5010982;28;20050;-71
2024/04/05 04:26:46;;;;;;;643.25;164.35;;;17.00;49.70;;;;;;5005923;28;20057;-72
2024/04/05 04:29:13;;;;;;;557.30;116.65;;;17.10;49.60;;;;;;5014614;28;20064;-71
2024/04/05 04:31:42;;;;;;;483.15;89.28;;;17.10;49.50;;;;;;5002145;28;20116;-72
2024/04/05 04:34:10;;;;;;;594.17;118.40;;;17.10;49.40;;;;;;5002028;28;20053;-69
2024/04/05 04:36:38;;;;;;;624.65;139.65;;;17.20;49.40;;;;;;4978253;28;20053;-70
2024/04/05 04:39:08;;;;;;;525.38;100.80;;;17.20;49.30;;;;;;5006244;28;20058;-69
2024/04/05 04:41:36;;;;;;;490.27;93.93;;;17.20;49.30;;;;;;5004327;28;20554;-65
2024/04/05 04:44:03;;;;;;;524.97;99.95;;;17.20;49.30;;;;;;5003079;28;20113;-68
2024/04/05 04:46:32;;;;;;;514.55;96.70;;;17.30;49.30;;;;;;5000898;28;20060;-66
2024/04/05 04:48:59;;;;;;;567.60;115.47;;;17.30;49.30;;;;;;4985701;28;20080;-69
2024/04/05 04:51:28;;;;;;;487.63;90.78;;;17.20;49.20;;;;;;5003166;28;20081;-67
2024/04/05 04:53:55;;;;;;;497.65;93.43;;;17.30;49.30;;;;;;5003317;28;20049;-68
2024/04/05 04:56:25;;;;;;;514.28;97.53;;;17.30;49.20;;;;;;4996850;28;20053;-67
2024/04/05 04:58:52;;;;;;;533.72;115.97;;;17.30;49.10;;;;;;4996417;28;20053;-71
2024/04/05 05:01:20;;;;;;;521.22;99.40;;;17.30;49.90;;;;;;4998532;28;20053;-71
2024/04/05 05:03:46;;;;;;;486.42;88.93;;;17.30;49.00;;;;;;5009013;28;20072;-72
2024/04/05 05:06:13;;;;;;;634.30;140.85;;;17.30;48.90;;;;;;4998738;28;20089;-72
2024/04/05 05:08:42;;;;;;;679.35;171.27;;;17.40;48.90;;;;;;5001752;28;20135;-68
2024/04/05 05:11:09;;;;;;;500.70;96.90;;;17.40;48.80;;;;;;5006553;28;20081;-68
2024/04/05 05:13:36;;;;;;;492.48;93.00;;;17.40;48.80;;;;;;5006593;28;20132;-69
2024/04/05 05:16:03;;;;;;;543.85;105.25;;;17.50;48.70;;;;;;5005911;28;20050;-68
2024/04/05 05:18:30;;;;;;;497.60;94.15;;;17.50;48.60;;;;;;5003034;28;20062;-67
2024/04/05 05:20:57;;;;;;;508.27;96.85;;;17.60;48.70;;;;;;5002380;28;20052;-68
2024/04/05 05:23:24;;;;;;;496.45;92.93;;;17.60;48.60;;;;;;5006268;28;20057;-66
2024/04/05 05:25:53;;;;;;;535.40;104.68;;;17.70;48.80;;;;;;5004934;28;20053;-65
2024/04/05 05:28:19;;;;;;;518.60;98.80;;;17.70;48.50;;;;;;5004752;28;20049;-67
2024/04/05 05:30:46;;;;;;;690.97;177.40;;;17.80;48.60;;;;;;4996943;28;20464;-66
2024/04/05 05:33:13;;;;;;;521.30;101.82;;;17.90;48.40;;;;;;5007207;28;20160;-68
2024/04/05 05:35:41;;;;;;;523.85;103.22;;;17.90;48.50;;;;;;4986698;28;20064;-71
2024/04/05 05:38:07;;;;;;;512.00;99.50;;;18.00;48.50;;;;;;5005192;28;20123;-68
2024/04/05 05:40:36;;;;;;;577.00;119.90;;;18.10;48.30;;;;;;4988578;28;20111;-69
2024/04/05 05:43:04;;;;;;;505.00;98.00;;;18.20;48.30;;;;;;5004098;28;20045;-66
2024/04/05 05:45:32;;;;;;;521.30;101.60;;;18.20;48.10;;;;;;4991585;28;20481;-68
2024/04/05 05:47:58;;;;;;;551.40;110.13;;;18.30;48.00;;;;;;5006417;28;20041;-68
2024/04/05 05:50:26;;;;;;;500.38;95.38;;;18.40;48.00;;;;;;4996077;28;20058;-65
2024/04/05 05:52:53;;;;;;;626.42;149.20;;;18.50;48.00;;;;;;4972889;28;21045;-68
2024/04/05 05:55:22;;;;;;;499.30;95.85;;;18.50;48.00;;;;;;5003387;28;20099;-69
2024/04/05 05:57:49;;;;;;;540.60;107.15;;;18.60;47.90;;;;;;5004699;28;20050;-69
2024/04/05 06:00:18;;;;;;;540.13;107.90;;;18.70;47.90;;;;;;5000249;28;20060;-60
2024/04/05 06:02:44;;;;;;;716.85;191.48;;;18.70;47.80;;;;;;4993519;28;20058;-66
2024/04/05 06:05:12;;;;;;;516.15;101.93;;;18.90;48.20;;;;;;4986457;28;20060;-65
2024/04/05 06:07:39;;;;;;;564.55;118.60;;;19.00;47.80;;;;;;5007609;28;20068;-68
2024/04/05 06:10:07;;;;;;;512.63;100.32;;;19.10;47.60;;;;;;4989181;28;20057;-69
2024/04/05 06:12:38;;;;;;;553.30;115.68;;;19.20;47.50;;;;;;5001987;28;20053;-67
2024/04/05 06:15:07;;;;;;;514.90;101.00;;;19.30;47.30;;;;;;4994238;28;20053;-65
2024/04/05 06:17:35;;;;;;;499.58;95.40;;;19.50;47.30;;;;;;4989002;28;20054;-71
2024/04/05 06:20:06;;;;;;;490.15;94.05;;;19.50;47.30;;;;;;5003079;28;20050;-73
2024/04/05 06:22:33;;;;;;;513.15;101.43;;;19.70;47.20;;;;;;4997261;28;20067;-71
2024/04/05 06:25:01;;;;;;;486.35;95.22;;;19.80;46.90;;;;;;5001330;28;20144;-70
2024/04/05 06:27:28;;;;;;;496.85;98.18;;;19.90;46.90;;;;;;5010632;28;20049;-74
2024/04/05 06:29:57;;;;;;;533.38;106.15;;;20.00;46.80;;;;;;4989762;28;20049;-71
2024/04/05 06:32:24;;;;;;;535.10;111.45;;;20.10;46.80;;;;;;5007573;28;20168;-71
2024/04/05 06:34:53;;;;;;;587.88;142.38;;;20.10;46.60;;;;;;4998742;28;20061;-72
2024/04/05 06:41:28;;;;;;;569.05;121.32;;;20.10;46.60;;;;;;5000360;28;20103;-72
2024/04/05 06:52:54;;;;;;;510.65;101.60;;;20.30;46.70;;;;;;5000767;28;20827;-73
2024/04/05 07:21:48;;;;;;;508.77;110.45;;;21.20;45.80;;;;;;5007588;28;20411;-66
2024/04/05 07:31:53;;;;;;;518.13;111.10;;;21.50;45.20;;;;;;4993288;28;20050;-64
2024/04/05 08:34:39;;;;;;;666.50;179.98;;;26.00;41.20;;;;;;4953309;28;21090;-64
2024/04/05 08:41:29;;;;;;;544.92;136.63;;;25.70;40.70;;;;;;4985788;28;20140;-67
2024/04/05 08:43:58;;;;;;;508.20;128.85;;;25.50;40.90;;;;;;4992534;28;20160;-70
2024/04/05 08:46:26;;;;;;;661.75;181.18;;;25.30;40.50;;;;;;4978275;28;20060;-67
2024/04/05 08:48:56;;;;;;;543.97;133.25;;;25.10;40.40;;;;;;4988712;28;20037;-68
2024/04/05 08:51:25;;;;;;;532.25;133.05;;;25.00;40.60;;;;;;5006930;28;20089;-69
2024/04/05 08:53:54;;;;;;;528.63;131.20;;;25.80;41.90;;;;;;4995328;28;21026;-68
2024/04/05 08:56:22;;;;;;;671.45;204.02;;;27.00;41.70;;;;;;5004911;28;20092;-66
2024/04/05 08:58:52;;;;;;;525.63;145.60;;;28.30;41.20;;;;;;4988297;28;20045;-67
2024/04/05 09:01:21;;;;;;;569.88;173.65;;;29.10;40.30;;;;;;4995677;28;22012;-64
2024/04/05 09:03:48;;;;;;;527.15;167.82;;;30.10;40.10;;;;;;5007788;28;20116;-70
2024/04/05 09:06:18;;;;;;;550.22;185.10;;;31.30;39.10;;;;;;5001634;28;20049;-65
2024/04/05 09:08:48;;;;;;;541.95;187.18;;;32.10;37.90;;;;;;4998621;28;20063;-64
2024/04/05 09:11:22;;;;;;;549.97;196.23;;;32.70;37.00;;;;;;4999447;28;20041;-63
2024/04/05 09:14:01;;;;;;;547.63;206.93;;;33.00;36.50;;;;;;5005352;28;20053;-67
2024/04/05 09:16:29;;;;;;;709.63;284.52;;;33.50;35.90;;;;;;4999373;28;20360;-65
2024/04/05 09:19:03;;;;;;;525.33;207.55;;;34.30;36.00;;;;;;5007323;28;20065;-66
2024/04/05 09:21:31;;;;;;;551.42;214.80;;;34.90;34.80;;;;;;4997943;28;20076;-66
2024/04/05 09:24:02;;;;;;;600.22;248.32;;;35.00;34.10;;;;;;5007863;28;20495;-68
2024/04/05 09:26:30;;;;;;;701.88;308.02;;;34.90;33.60;;;;;;4996778;28;20061;-63
2024/04/05 09:29:01;;;;;;;572.15;235.95;;;35.00;33.70;;;;;;5000002;28;22217;-67
2024/04/05 09:31:30;;;;;;;558.80;232.93;;;35.40;33.70;;;;;;5018013;28;20743;-65
2024/04/05 09:34:06;;;;;;;545.35;243.38;;;35.60;33.20;;;;;;5007489;28;20123;-62
2024/04/05 09:36:36;;;;;;;735.15;322.02;;;35.70;33.00;;;;;;4997551;28;20823;-61
2024/04/05 09:39:06;;;;;;;538.25;231.77;;;36.00;32.90;;;;;;5007109;28;20046;-63
2024/04/05 09:41:38;;;;;;;593.10;254.20;;;36.40;32.40;;;;;;5006355;28;20057;-63
2024/04/05 09:44:09;;;;;;;555.72;239.98;;;36.40;32.00;;;;;;5005956;28;20069;-62
2024/04/05 09:46:37;;;;;;;562.83;257.92;;;36.30;31.70;;;;;;4992918;28;20465;-61
2024/04/05 09:49:05;;;;;;;540.50;237.77;;;36.30;31.70;;;;;;5003437;28;20143;-67
2024/04/05 09:51:44;;;;;;;561.90;249.52;;;36.00;31.40;;;;;;4997361;28;20124;-62
2024/04/05 09:54:13;;;;;;;603.30;261.30;;;35.60;31.30;;;;;;5005943;28;20065;-63
2024/04/05 09:56:42;;;;;;;554.33;242.63;;;35.30;31.50;;;;;;4998785;28;20056;-62
2024/04/05 09:59:15;;;;;;;633.90;266.08;;;34.90;32.00;;;;;;4993888;28;20045;-60
2024/04/05 10:01:46;;;;;;;576.13;239.27;;;34.70;32.30;;;;;;5003038;28;20376;-65
2024/04/05 10:04:14;;;;;;;596.25;241.43;;;34.70;32.40;;;;;;4998588;28;20061;-68
2024/04/05 10:06:43;;;;;;;542.78;226.45;;;34.60;32.20;;;;;;4992784;28;20057;-68
2024/04/05 10:09:16;;;;;;;554.63;231.45;;;34.50;32.60;;;;;;4994675;28;20064;-67
2024/04/05 10:11:44;;;;;;;549.17;231.73;;;34.40;32.00;;;;;;5008461;28;20076;-69
2024/04/05 10:14:20;;;;;;;541.67;213.82;;;33.90;31.90;;;;;;5000351;28;20072;-67
2024/04/05 10:16:48;;;;;;;531.67;225.75;;;33.50;32.20;;;;;;4989132;28;20494;-67
2024/04/05 10:19:16;;;;;;;563.80;227.77;;;33.40;32.50;;;;;;4998610;28;20515;-66
2024/04/05 10:21:45;;;;;;;571.90;229.73;;;33.40;32.60;;;;;;4987988;28;20844;-66
2024/04/05 10:24:26;;;;;;;556.13;235.23;;;33.70;32.80;;;;;;5003254;28;20062;-62
2024/04/05 10:27:02;;;;;;;607.72;267.17;;;34.30;32.80;;;;;;4994228;28;20053;-63
2024/04/05 10:29:31;;;;;;;548.72;235.75;;;34.70;31.90;;;;;;4982803;28;20056;-64
2024/04/05 10:32:06;;;;;;;541.70;235.07;;;35.10;32.00;;;;;;4985127;28;20049;-64
2024/04/05 10:34:33;;;;;;;694.28;300.02;;;35.80;31.70;;;;;;4993756;28;20132;-63
2024/04/05 10:37:04;;;;;;;572.17;260.98;;;36.50;31.10;;;;;;4996779;28;20050;-63
2024/04/05 10:39:32;;;;;;;586.45;275.40;;;36.70;30.40;;;;;;4981278;28;20057;-64
2024/04/05 10:42:00;;;;;;;534.35;251.25;;;36.80;30.10;;;;;;5001085;28;20065;-68
2024/04/05 10:44:26;;;;;;;705.67;335.77;;;37.10;30.30;;;;;;4994777;28;20060;-65
2024/04/05 10:46:54;;;;;;;575.30;275.95;;;37.50;29.90;;;;;;5018478;28;20054;-66
2024/04/05 10:49:20;;;;;;;589.33;280.15;;;37.60;29.70;;;;;;5000862;28;20140;-65
2024/04/05 10:51:48;;;;;;;553.40;272.92;;;37.80;29.60;;;;;;5004352;28;20061;-67
2024/04/05 10:54:15;;;;;;;565.17;273.00;;;38.00;29.20;;;;;;5000079;28;20053;-66
2024/04/05 10:56:45;;;;;;;559.33;272.77;;;38.00;29.00;;;;;;4994853;28;21066;-66
2024/04/05 10:59:13;;;;;;;574.10;275.05;;;37.80;28.60;;;;;;4988822;28;20060;-67
2024/04/05 11:01:41;;;;;;;555.10;263.38;;;37.50;28.90;;;;;;4986298;28;20056;-65
2024/04/05 11:04:10;;;;;;;586.35;261.02;;;37.20;28.30;;;;;;4993075;28;20057;-65
2024/04/05 11:06:38;;;;;;;550.47;260.77;;;36.80;28.50;;;;;;4993800;28;20041;-65
2024/04/05 11:09:06;;;;;;;582.97;245.25;;;36.60;28.70;;;;;;4993025;28;20152;-65
2024/04/05 11:11:33;;;;;;;523.03;214.82;;;36.00;28.30;;;;;;5012808;28;20049;-65
2024/04/05 11:14:03;;;;;;;563.20;237.13;;;35.40;28.70;;;;;;5000302;28;20083;-64
2024/04/05 11:16:30;;;;;;;675.95;280.73;;;34.60;28.80;;;;;;5001870;28;20574;-65
2024/04/05 11:18:56;;;;;;;559.25;203.32;;;33.50;28.90;;;;;;5011081;28;20065;-67
2024/04/05 11:21:24;;;;;;;500.98;174.38;;;32.40;29.50;;;;;;5011103;28;20444;-66
2024/04/05 11:23:53;;;;;;;564.90;214.45;;;31.60;30.20;;;;;;5012911;28;20064;-66
2024/04/05 11:26:21;;;;;;;640.22;222.07;;;31.10;30.90;;;;;;5004263;28;20057;-65
2024/04/05 11:28:48;;;;;;;528.75;175.93;;;30.60;31.10;;;;;;5009540;28;20069;-65
2024/04/05 11:31:17;;;;;;;542.55;178.27;;;30.20;31.40;;;;;;4994832;28;20099;-64
2024/04/05 11:33:43;;;;;;;504.33;160.52;;;29.80;31.60;;;;;;5014296;28;20056;-67
2024/04/05 11:36:11;;;;;;;511.40;156.98;;;29.50;31.80;;;;;;4994836;28;20065;-66
2024/04/05 11:38:38;;;;;;;517.38;162.02;;;29.30;32.10;;;;;;4998048;28;20444;-65
2024/04/05 11:41:05;;;;;;;545.22;173.75;;;29.10;32.30;;;;;;4993465;28;20089;-65
2024/04/05 11:43:31;;;;;;;551.35;173.20;;;29.00;32.30;;;;;;5005461;28;20132;-64
2024/04/05 11:45:59;;;;;;;535.13;168.52;;;29.00;32.40;;;;;;5018930;28;20050;-64
2024/04/05 11:48:27;;;;;;;678.25;242.57;;;28.90;32.40;;;;;;5012131;28;20119;-65
2024/04/05 11:50:55;;;;;;;531.67;165.57;;;28.90;32.50;;;;;;5015432;28;20123;-64
2024/04/05 11:53:21;;;;;;;507.60;165.40;;;28.90;32.60;;;;;;5012122;28;20125;-67
2024/04/05 11:55:48;;;;;;;525.70;164.18;;;28.80;32.50;;;;;;5015823;28;20042;-64
2024/04/05 11:58:15;;;;;;;542.63;165.63;;;28.80;32.50;;;;;;5015881;28;20058;-63
2024/04/05 12:00:48;;;;;;;553.13;169.90;;;28.80;32.50;;;;;;4999600;28;20050;-64
2024/04/05 12:03:14;;;;;;;497.35;154.65;;;28.80;32.60;;;;;;5001506;28;20867;-63
2024/04/05 12:05:44;;;;;;;520.92;163.30;;;28.90;32.60;;;;;;4997565;28;20077;-63
2024/04/05 12:08:10;;;;;;;569.25;182.18;;;28.90;32.40;;;;;;5006897;28;20282;-62
2024/04/05 12:10:38;;;;;;;587.42;198.45;;;28.90;32.50;;;;;;4998824;28;20053;-63
2024/04/05 12:13:05;;;;;;;529.20;160.98;;;28.80;32.50;;;;;;4993585;28;20042;-62
2024/04/05 12:15:33;;;;;;;536.60;167.48;;;28.80;32.50;;;;;;4999715;28;20149;-63
2024/04/05 12:17:59;;;;;;;528.22;167.52;;;28.70;32.30;;;;;;5009907;28;20099;-65
2024/04/05 12:20:27;;;;;;;698.72;241.73;;;28.60;32.40;;;;;;4993772;28;20590;-64
2024/04/05 12:22:55;;;;;;;519.70;196.60;;;28.60;32.40;;;;;;5009470;28;20065;-64
2024/04/05 12:25:24;;;;;;;506.73;157.70;;;28.60;32.50;;;;;;5011196;28;20398;-63
2024/04/05 12:27:52;;;;;;;535.88;169.85;;;28.60;33.00;;;;;;5007395;28;20049;-65
2024/04/05 12:30:20;;;;;;;593.08;191.15;;;28.70;32.40;;;;;;5000959;28;20061;-64
2024/04/05 12:32:46;;;;;;;519.75;165.27;;;28.70;32.40;;;;;;5006034;28;20061;-64
2024/04/05 12:35:14;;;;;;;529.15;169.95;;;28.70;32.40;;;;;;5003234;28;20053;-63
2024/04/05 12:37:40;;;;;;;503.30;163.02;;;28.80;32.40;;;;;;4997161;28;20059;-64
2024/04/05 12:40:17;;;;;;;506.20;163.60;;;28.90;32.40;;;;;;4989447;28;20058;-65
2024/04/05 12:42:48;;;;;;;511.13;161.25;;;29.00;32.40;;;;;;5005753;28;20049;-63
2024/04/05 12:45:16;;;;;;;513.70;173.50;;;29.10;32.70;;;;;;5011284;28;20168;-66
2024/04/05 12:47:43;;;;;;;539.22;173.15;;;29.10;32.20;;;;;;5010735;28;20111;-64
2024/04/05 12:50:11;;;;;;;556.85;173.93;;;29.10;32.10;;;;;;5010902;28;20448;-65
2024/04/05 12:52:38;;;;;;;500.42;160.60;;;29.10;32.10;;;;;;5006819;28;20168;-64
2024/04/05 12:55:06;;;;;;;528.00;190.63;;;29.10;32.20;;;;;;5010624;28;20041;-63
2024/04/05 12:57:35;;;;;;;513.17;174.85;;;29.10;32.40;;;;;;5027827;28;20069;-64
2024/04/05 13:00:04;;;;;;;494.23;165.32;;;29.20;32.20;;;;;;4998018;28;20080;-65
2024/04/05 13:02:31;;;;;;;689.63;273.05;;;29.30;32.20;;;;;;4996479;28;20054;-64
2024/04/05 13:04:59;;;;;;;509.65;165.77;;;29.30;32.10;;;;;;5012980;28;20065;-64
2024/04/05 13:07:25;;;;;;;508.58;174.85;;;29.40;32.20;;;;;;5009344;28;20057;-64
2024/04/05 13:09:53;;;;;;;526.38;178.65;;;29.40;32.00;;;;;;5016914;28;20115;-63
2024/04/05 13:12:20;;;;;;;685.40;233.68;;;29.40;32.10;;;;;;4999221;28;20049;-64
2024/04/05 13:14:48;;;;;;;525.42;171.10;;;29.30;32.10;;;;;;4990900;28;20054;-63
2024/04/05 13:17:15;;;;;;;546.60;176.43;;;29.30;32.10;;;;;;5010241;28;20632;-63
2024/04/05 13:19:42;;;;;;;521.08;164.32;;;29.30;32.10;;;;;;5010050;28;20057;-63
2024/04/05 13:22:09;;;;;;;546.88;178.35;;;29.30;32.20;;;;;;5014389;28;20049;-63
2024/04/05 13:24:37;;;;;;;567.72;199.48;;;29.30;32.30;;;;;;5003699;28;20520;-63
2024/04/05 13:27:04;;;;;;;502.30;158.60;;;29.30;32.10;;;;;;4995554;28;20050;-61
2024/04/05 13:29:32;;;;;;;548.35;174.15;;;29.30;32.20;;;;;;5005892;28;20062;-64
2024/04/05 13:31:59;;;;;;;511.35;163.38;;;29.30;32.20;;;;;;5005341;28;20053;-66
2024/04/05 13:34:27;;;;;;;670.13;237.15;;;29.30;32.30;;;;;;4998538;28;20093;-63
2024/04/05 13:36:53;;;;;;;523.05;171.27;;;29.40;32.30;;;;;;5007062;28;20054;-64
2024/04/05 13:39:21;;;;;;;537.88;171.13;;;29.40;32.30;;;;;;5013422;28;20049;-65
2024/04/05 13:41:48;;;;;;;536.85;170.55;;;29.40;32.30;;;;;;5027881;28;20054;-63
2024/04/05 13:44:16;;;;;;;527.60;170.60;;;29.40;32.30;;;;;;5011050;28;20140;-66
2024/04/05 13:46:42;;;;;;;571.40;192.02;;;29.50;32.30;;;;;;5019068;28;20118;-64
2024/04/05 13:49:12;;;;;;;533.47;175.75;;;29.40;32.20;;;;;;5013813;28;20410;-65
2024/04/05 13:51:39;;;;;;;551.53;180.93;;;29.40;32.10;;;;;;5006862;28;20096;-63
2024/04/05 13:54:06;;;;;;;519.03;168.93;;;29.40;32.10;;;;;;5007047;28;20057;-64
2024/04/05 13:56:33;;;;;;;761.78;265.85;;;29.40;32.00;;;;;;4995686;28;20062;-65
2024/04/05 13:59:00;;;;;;;533.42;170.13;;;29.40;32.20;;;;;;5005010;28;20089;-64
2024/04/05 14:01:26;;;;;;;551.88;179.10;;;29.40;32.10;;;;;;4996432;28;20057;-64
2024/04/05 14:03:55;;;;;;;507.58;161.63;;;29.40;32.20;;;;;;5001831;28;20069;-65
2024/04/05 14:06:23;;;;;;;679.35;235.18;;;29.40;32.20;;;;;;5003036;28;20128;-64